Ana Sayfa
METAR-TAF:

METAR-TAF

Havaalanları :

Ocean County, New Jersey, Amerika Birleşik Devletleri

Enlem: 39-55-39N, Boylam: 074-17-33W, yükseklik: 25 m

Güncel hava durumu gözlemi

Rapor saat 13:56 UTC de 56 dakika önce yapıldı.
Rüzgar batıdan 19 kt ve 28 kt'a kadar ani rüzgarlar
Sıcaklık 4°C
Nem 65%
Basınç 1001 hPa
Görüş mesafesi: 16.1 km
4000 ft yükseklikte çok bulutlu

METAR: KMJX 271356Z AUTO 27019G28KT 10SM OVC040 04/M02 A2955 RMK AO2 PK WND 26034/1327 SLPNO T00441022

Saat: 09:52 (14:52 UTC)


TAF: eksik

4.000'den fazla havaalanı için hava durumu gözlemleri ve tahminleri (METAR ve TAF raporları).

Kullanılabilir istasyonlar harita üzerinde sarı ve kırmızı noktalarla gösterilir.

İstasyonun adını görmek için fareyi noktanın üzerinde gezdirin.

Sonrasında hava gözlem ve tahminlerini görmek için tıklayın.

Haritayı değiştirmek için: yaklaştırmak için siyah artı işaretli yeşil düğmeye ve uzaklaştırmak için de eksi işaretli düğmeye hızla tıklayın; bitişik haritalar için yeşil okları kullanın.


METAR-TAF: